sensor_id;sensor_type;location;lat;lon;timestamp;temperature;humidity
20315;DHT22;10315;50.958;13.080;2023-09-19T00:01:09;15.20;99.90
20315;DHT22;10315;50.958;13.080;2023-09-19T00:11:12;15.20;99.90
20315;DHT22;10315;50.958;13.080;2023-09-19T00:21:16;15.20;99.90
20315;DHT22;10315;50.958;13.080;2023-09-19T00:31:17;15.10;99.90
20315;DHT22;10315;50.958;13.080;2023-09-19T00:41:20;15.20;99.90
20315;DHT22;10315;50.958;13.080;2023-09-19T00:51:22;15.20;99.90
20315;DHT22;10315;50.958;13.080;2023-09-19T01:01:27;15.20;99.90
20315;DHT22;10315;50.958;13.080;2023-09-19T01:11:33;15.40;99.90
20315;DHT22;10315;50.958;13.080;2023-09-19T01:21:47;15.50;99.90
20315;DHT22;10315;50.958;13.080;2023-09-19T01:31:57;15.60;99.90
20315;DHT22;10315;50.958;13.080;2023-09-19T01:42:09;15.60;99.90
20315;DHT22;10315;50.958;13.080;2023-09-19T01:52:17;15.60;99.90
20315;DHT22;10315;50.958;13.080;2023-09-19T02:02:21;15.60;99.90
20315;DHT22;10315;50.958;13.080;2023-09-19T02:12:25;15.50;99.90
20315;DHT22;10315;50.958;13.080;2023-09-19T02:22:27;15.70;99.90
20315;DHT22;10315;50.958;13.080;2023-09-19T02:32:31;15.70;99.90
20315;DHT22;10315;50.958;13.080;2023-09-19T02:42:36;15.70;99.90
20315;DHT22;10315;50.958;13.080;2023-09-19T02:52:41;15.60;99.90
20315;DHT22;10315;50.958;13.080;2023-09-19T03:02:43;15.50;99.90
20315;DHT22;10315;50.958;13.080;2023-09-19T03:12:48;15.40;99.90
20315;DHT22;10315;50.958;13.080;2023-09-19T03:22:50;15.40;99.90
20315;DHT22;10315;50.958;13.080;2023-09-19T03:32:53;15.30;99.90
20315;DHT22;10315;50.958;13.080;2023-09-19T03:42:55;15.40;99.90
20315;DHT22;10315;50.958;13.080;2023-09-19T03:52:58;15.50;99.90
20315;DHT22;10315;50.958;13.080;2023-09-19T04:03:00;15.10;99.90
20315;DHT22;10315;50.958;13.080;2023-09-19T04:13:07;15.10;99.90
20315;DHT22;10315;50.958;13.080;2023-09-19T04:23:09;15.10;99.90
20315;DHT22;10315;50.958;13.080;2023-09-19T04:33:12;14.90;99.90
20315;DHT22;10315;50.958;13.080;2023-09-19T04:43:14;14.90;99.90
20315;DHT22;10315;50.958;13.080;2023-09-19T04:53:19;14.80;99.90
20315;DHT22;10315;50.958;13.080;2023-09-19T05:03:21;14.70;99.90
20315;DHT22;10315;50.958;13.080;2023-09-19T05:13:24;14.80;99.90
20315;DHT22;10315;50.958;13.080;2023-09-19T05:23:27;14.80;99.90
20315;DHT22;10315;50.958;13.080;2023-09-19T05:33:30;15.10;99.90
20315;DHT22;10315;50.958;13.080;2023-09-19T05:43:33;15.30;99.90
20315;DHT22;10315;50.958;13.080;2023-09-19T05:53:36;15.40;99.90
20315;DHT22;10315;50.958;13.080;2023-09-19T06:03:38;15.40;99.90
20315;DHT22;10315;50.958;13.080;2023-09-19T06:13:41;15.50;99.90
20315;DHT22;10315;50.958;13.080;2023-09-19T06:23:42;16.20;99.90
20315;DHT22;10315;50.958;13.080;2023-09-19T06:33:46;17.90;99.90
20315;DHT22;10315;50.958;13.080;2023-09-19T06:43:47;16.80;99.90
20315;DHT22;10315;50.958;13.080;2023-09-19T06:53:50;16.30;99.90
20315;DHT22;10315;50.958;13.080;2023-09-19T07:03:54;16.20;99.90
20315;DHT22;10315;50.958;13.080;2023-09-19T07:13:57;16.60;99.90
20315;DHT22;10315;50.958;13.080;2023-09-19T07:23:59;18.00;99.90
20315;DHT22;10315;50.958;13.080;2023-09-19T07:34:04;18.20;99.90
20315;DHT22;10315;50.958;13.080;2023-09-19T07:44:07;17.40;99.90
20315;DHT22;10315;50.958;13.080;2023-09-19T07:54:11;18.10;99.90
20315;DHT22;10315;50.958;13.080;2023-09-19T08:04:13;18.50;99.90
20315;DHT22;10315;50.958;13.080;2023-09-19T08:14:16;22.00;99.90
20315;DHT22;10315;50.958;13.080;2023-09-19T08:24:18;24.70;99.90
20315;DHT22;10315;50.958;13.080;2023-09-19T08:34:22;23.70;99.90
20315;DHT22;10315;50.958;13.080;2023-09-19T08:44:24;21.40;99.90
20315;DHT22;10315;50.958;13.080;2023-09-19T08:54:33;19.20;99.90
20315;DHT22;10315;50.958;13.080;2023-09-19T09:04:39;19.80;99.90
20315;DHT22;10315;50.958;13.080;2023-09-19T09:14:45;19.90;99.90
20315;DHT22;10315;50.958;13.080;2023-09-19T09:24:54;19.90;99.90
20315;DHT22;10315;50.958;13.080;2023-09-19T09:35:00;19.10;99.90
20315;DHT22;10315;50.958;13.080;2023-09-19T09:45:15;20.30;99.90
20315;DHT22;10315;50.958;13.080;2023-09-19T09:55:18;19.10;99.90
20315;DHT22;10315;50.958;13.080;2023-09-19T10:05:21;20.70;99.90
20315;DHT22;10315;50.958;13.080;2023-09-19T10:15:32;21.00;99.90
20315;DHT22;10315;50.958;13.080;2023-09-19T10:25:36;21.00;99.90
20315;DHT22;10315;50.958;13.080;2023-09-19T10:35:42;21.80;99.90
20315;DHT22;10315;50.958;13.080;2023-09-19T10:45:45;22.30;99.90
20315;DHT22;10315;50.958;13.080;2023-09-19T10:55:53;22.40;99.90
20315;DHT22;10315;50.958;13.080;2023-09-19T11:06:05;22.00;99.90
20315;DHT22;10315;50.958;13.080;2023-09-19T11:16:18;22.70;99.90
20315;DHT22;10315;50.958;13.080;2023-09-19T11:26:40;22.10;99.90
20315;DHT22;10315;50.958;13.080;2023-09-19T11:36:45;21.50;99.90
20315;DHT22;10315;50.958;13.080;2023-09-19T11:46:54;21.50;99.90
20315;DHT22;10315;50.958;13.080;2023-09-19T11:57:00;22.10;99.90
20315;DHT22;10315;50.958;13.080;2023-09-19T12:07:04;22.90;99.90
20315;DHT22;10315;50.958;13.080;2023-09-19T12:17:07;22.60;99.90
20315;DHT22;10315;50.958;13.080;2023-09-19T12:27:09;22.60;99.90
20315;DHT22;10315;50.958;13.080;2023-09-19T12:37:14;22.80;99.90
20315;DHT22;10315;50.958;13.080;2023-09-19T12:47:21;23.20;99.90
20315;DHT22;10315;50.958;13.080;2023-09-19T12:57:25;22.70;99.90
20315;DHT22;10315;50.958;13.080;2023-09-19T13:07:40;22.60;99.90
20315;DHT22;10315;50.958;13.080;2023-09-19T13:17:46;22.40;99.90
20315;DHT22;10315;50.958;13.080;2023-09-19T13:27:50;22.50;98.70
20315;DHT22;10315;50.958;13.080;2023-09-19T13:37:55;22.20;99.30
20315;DHT22;10315;50.958;13.080;2023-09-19T13:47:57;22.30;98.70
20315;DHT22;10315;50.958;13.080;2023-09-19T13:58:00;22.70;97.50
20315;DHT22;10315;50.958;13.080;2023-09-19T14:08:02;22.20;95.30
20315;DHT22;10315;50.958;13.080;2023-09-19T14:18:06;21.90;96.40
20315;DHT22;10315;50.958;13.080;2023-09-19T14:28:09;21.40;96.60
20315;DHT22;10315;50.958;13.080;2023-09-19T14:38:12;21.60;96.40
20315;DHT22;10315;50.958;13.080;2023-09-19T14:48:13;21.70;96.80
20315;DHT22;10315;50.958;13.080;2023-09-19T14:58:16;21.80;96.10
20315;DHT22;10315;50.958;13.080;2023-09-19T15:08:18;21.20;97.00
20315;DHT22;10315;50.958;13.080;2023-09-19T15:18:22;21.50;93.60
20315;DHT22;10315;50.958;13.080;2023-09-19T15:28:23;20.90;94.00
20315;DHT22;10315;50.958;13.080;2023-09-19T15:38:26;20.50;94.90
20315;DHT22;10315;50.958;13.080;2023-09-19T15:48:28;20.30;94.20
20315;DHT22;10315;50.958;13.080;2023-09-19T15:58:31;20.10;95.50
20315;DHT22;10315;50.958;13.080;2023-09-19T16:08:34;19.90;95.70
20315;DHT22;10315;50.958;13.080;2023-09-19T16:18:38;19.70;96.50
20315;DHT22;10315;50.958;13.080;2023-09-19T16:28:40;19.40;96.10
20315;DHT22;10315;50.958;13.080;2023-09-19T16:38:45;19.00;96.30
20315;DHT22;10315;50.958;13.080;2023-09-19T16:48:47;18.60;97.30
20315;DHT22;10315;50.958;13.080;2023-09-19T16:58:51;18.20;98.80
20315;DHT22;10315;50.958;13.080;2023-09-19T17:08:52;17.50;99.90
20315;DHT22;10315;50.958;13.080;2023-09-19T17:18:57;17.10;99.90
20315;DHT22;10315;50.958;13.080;2023-09-19T17:28:59;16.90;99.90
20315;DHT22;10315;50.958;13.080;2023-09-19T17:39:02;16.70;99.90
20315;DHT22;10315;50.958;13.080;2023-09-19T17:49:06;16.70;99.90
20315;DHT22;10315;50.958;13.080;2023-09-19T17:59:09;16.20;99.90
20315;DHT22;10315;50.958;13.080;2023-09-19T18:09:12;16.10;99.90
20315;DHT22;10315;50.958;13.080;2023-09-19T18:19:16;15.80;99.90
20315;DHT22;10315;50.958;13.080;2023-09-19T18:29:17;15.70;99.90
20315;DHT22;10315;50.958;13.080;2023-09-19T18:39:20;15.70;99.90
20315;DHT22;10315;50.958;13.080;2023-09-19T18:49:23;15.50;99.90
20315;DHT22;10315;50.958;13.080;2023-09-19T18:59:27;15.30;99.90
20315;DHT22;10315;50.958;13.080;2023-09-19T19:09:29;15.30;99.90
20315;DHT22;10315;50.958;13.080;2023-09-19T19:19:32;15.20;99.90
20315;DHT22;10315;50.958;13.080;2023-09-19T19:29:34;15.10;99.90
20315;DHT22;10315;50.958;13.080;2023-09-19T19:39:38;14.70;99.90
20315;DHT22;10315;50.958;13.080;2023-09-19T19:49:40;14.40;99.90
20315;DHT22;10315;50.958;13.080;2023-09-19T19:59:43;14.50;99.90
20315;DHT22;10315;50.958;13.080;2023-09-19T20:09:44;14.50;99.90
20315;DHT22;10315;50.958;13.080;2023-09-19T20:19:47;14.40;99.90
20315;DHT22;10315;50.958;13.080;2023-09-19T20:29:51;14.30;99.90
20315;DHT22;10315;50.958;13.080;2023-09-19T20:39:54;14.20;99.90
20315;DHT22;10315;50.958;13.080;2023-09-19T20:49:56;14.10;99.90
20315;DHT22;10315;50.958;13.080;2023-09-19T20:59:58;13.90;99.90
20315;DHT22;10315;50.958;13.080;2023-09-19T21:10:00;13.80;99.90
20315;DHT22;10315;50.958;13.080;2023-09-19T21:20:08;13.60;99.90
20315;DHT22;10315;50.958;13.080;2023-09-19T21:30:12;13.50;99.90
20315;DHT22;10315;50.958;13.080;2023-09-19T21:40:16;13.60;99.90
20315;DHT22;10315;50.958;13.080;2023-09-19T21:50:18;13.60;99.90
20315;DHT22;10315;50.958;13.080;2023-09-19T22:00:22;13.40;99.90
20315;DHT22;10315;50.958;13.080;2023-09-19T22:10:40;13.60;99.90
20315;DHT22;10315;50.958;13.080;2023-09-19T22:20:45;13.50;99.90
20315;DHT22;10315;50.958;13.080;2023-09-19T22:30:49;13.50;99.90
20315;DHT22;10315;50.958;13.080;2023-09-19T22:40:52;13.60;99.90
20315;DHT22;10315;50.958;13.080;2023-09-19T22:50:53;13.70;99.90
20315;DHT22;10315;50.958;13.080;2023-09-19T23:01:08;14.00;99.90
20315;DHT22;10315;50.958;13.080;2023-09-19T23:11:15;14.10;99.90
20315;DHT22;10315;50.958;13.080;2023-09-19T23:21:24;14.20;99.90
20315;DHT22;10315;50.958;13.080;2023-09-19T23:31:27;14.20;99.90
20315;DHT22;10315;50.958;13.080;2023-09-19T23:41:32;14.10;99.90
20315;DHT22;10315;50.958;13.080;2023-09-19T23:51:33;14.10;99.90
